Tar Heel, North Carolina
Current Conditions -  °F | °C
As of 9:35 AM on Friday 28 Nov 2014 (Local Time) from KEYF Reporting Station
Clear Clear  
Wind Chill:   Ceiling: Unl
Heat Index:   Visibility: 10mi
Dew Point: -4°   Wind: 6mph
Humidity: 62%   Direction: 330°NNW
Pressure: 30.37"   Gusts: NA
Location:  34.73°N, 78.79°W
Report Text: KEYF 281435Z AUTO 33005KT 10SM CLR 03/M04 A3037 RMK AO2 T00251042
Loading
Personal Weather Stations






























Interactive Weather Map New forecast layout! Learn more

10-Day Weather Forecast

Advertisements
Track Severe Weather on mobile